Terminal Aerodrome Forecast
Issued by NWS

Home | Current Version | Previous Version | Text Only | Print | Product List | Glossary On
Versions: 1 2 3 4 5 6 7 8 9 10 11 12 13
000
FTUS43 KMQT 241120
TAFSAW
TAF
KSAW 241120Z 2412/2512 VRB05KT P6SM SCT015 BKN090
     FM241600 35006KT P6SM VCSH SCT015 BKN025
     FM241800 36006KT 6SM -SHRA BKN025
     FM242200 36006KT P6SM VCSH SCT025 BKN045
     FM250100 VRB04KT P6SM VCSH SCT010 BKN045=

USA.gov is the U.S. government's official web portal to all federal, state and local government web resources and services.